createdAt,value
2022-09-15T00:00:30.554Z,14.60
2022-09-15T00:01:30.586Z,14.57
2022-09-15T00:02:30.631Z,14.61
2022-09-15T00:03:30.502Z,14.61
2022-09-15T00:04:30.503Z,14.61
2022-09-15T00:05:30.484Z,14.61
2022-09-15T00:06:30.485Z,14.61
2022-09-15T00:07:30.474Z,14.54
2022-09-15T00:08:30.447Z,14.54
2022-09-15T00:09:30.431Z,14.53
2022-09-15T00:10:30.413Z,14.53
2022-09-15T00:11:30.398Z,14.50
2022-09-15T00:12:30.422Z,14.50
2022-09-15T00:13:30.379Z,14.43
2022-09-15T00:14:30.368Z,14.43
2022-09-15T00:15:30.346Z,14.39
2022-09-15T00:16:30.379Z,14.39
2022-09-15T00:17:30.344Z,14.37
2022-09-15T00:18:30.312Z,14.38
2022-09-15T00:19:30.288Z,14.38
2022-09-15T00:20:30.284Z,14.39
2022-09-15T00:21:30.271Z,14.35
2022-09-15T00:22:30.290Z,14.35
2022-09-15T00:23:30.239Z,14.35
2022-09-15T00:24:30.226Z,14.38
2022-09-15T00:25:30.206Z,14.32
2022-09-15T00:26:30.198Z,14.29
2022-09-15T00:27:30.206Z,14.27
2022-09-15T00:28:30.174Z,14.24
2022-09-15T00:29:30.158Z,14.25
2022-09-15T00:30:30.187Z,14.24
2022-09-15T00:31:30.127Z,14.25
2022-09-15T00:32:30.146Z,14.19
2022-09-15T00:33:30.097Z,14.16
2022-09-15T00:34:30.087Z,14.13
2022-09-15T00:35:30.079Z,14.07
2022-09-15T00:36:30.067Z,14.07
2022-09-15T00:37:30.078Z,14.12
2022-09-15T00:38:30.038Z,14.04
2022-09-15T00:39:30.023Z,14.04
2022-09-15T00:40:30.141Z,13.98
2022-09-15T00:41:29.989Z,13.98
2022-09-15T00:42:30.009Z,13.98
2022-09-15T00:43:29.968Z,13.98
2022-09-15T00:44:29.957Z,13.92
2022-09-15T00:45:29.991Z,13.91
2022-09-15T00:46:29.930Z,13.92
2022-09-15T00:47:29.930Z,13.92
2022-09-15T00:48:30.040Z,13.89
2022-09-15T00:49:29.888Z,13.92
2022-09-15T00:50:29.878Z,13.87
2022-09-15T00:51:29.858Z,13.84
2022-09-15T00:52:29.871Z,13.87
2022-09-15T00:53:29.849Z,13.87
2022-09-15T00:54:29.821Z,13.89
2022-09-15T00:55:29.811Z,13.83
2022-09-15T00:56:29.801Z,13.83
2022-09-15T00:57:29.812Z,13.83
2022-09-15T00:58:29.761Z,13.80
2022-09-15T00:59:29.741Z,13.77
2022-09-15T01:00:29.742Z,13.79
2022-09-15T01:01:29.808Z,13.70
2022-09-15T01:02:29.817Z,13.69
2022-09-15T01:03:29.704Z,13.73
2022-09-15T01:04:29.684Z,13.70
2022-09-15T01:05:29.662Z,13.69
2022-09-15T01:06:29.653Z,13.70
2022-09-15T01:07:29.666Z,13.69
2022-09-15T01:08:29.661Z,13.69
2022-09-15T01:09:29.615Z,13.69
2022-09-15T01:10:29.605Z,13.67
2022-09-15T01:11:29.583Z,13.71
2022-09-15T01:12:29.605Z,13.63
2022-09-15T01:13:29.563Z,13.62
2022-09-15T01:14:29.551Z,13.59
2022-09-15T01:15:29.532Z,13.61
2022-09-15T01:16:29.595Z,13.61
2022-09-15T01:17:29.525Z,13.58
2022-09-15T01:18:29.495Z,13.55
2022-09-15T01:19:29.476Z,13.56
2022-09-15T01:20:29.506Z,13.55
2022-09-15T01:21:29.445Z,13.55
2022-09-15T01:22:29.463Z,13.49
2022-09-15T01:23:29.423Z,13.49
2022-09-15T01:24:29.416Z,13.47
2022-09-15T01:25:29.397Z,13.47
2022-09-15T01:26:29.384Z,13.41
2022-09-15T01:27:42.278Z,13.40
2022-09-15T01:28:30.369Z,13.38
2022-09-15T01:29:29.371Z,13.36
2022-09-15T01:30:29.341Z,13.30
2022-09-15T01:31:29.345Z,13.33
2022-09-15T01:32:29.327Z,13.27
2022-09-15T01:33:29.276Z,13.32
2022-09-15T01:34:29.277Z,13.29
2022-09-15T01:35:29.258Z,13.29
2022-09-15T01:36:29.254Z,13.24
2022-09-15T01:37:29.258Z,13.27
2022-09-15T01:38:29.218Z,13.22
2022-09-15T01:39:29.216Z,13.22
2022-09-15T01:40:29.246Z,13.24
2022-09-15T01:41:29.178Z,13.27
2022-09-15T01:42:29.188Z,13.22
2022-09-15T01:43:29.159Z,13.24
2022-09-15T01:44:29.139Z,13.22
2022-09-15T01:45:29.262Z,13.24
2022-09-15T01:46:29.148Z,13.18
2022-09-15T01:47:29.099Z,13.18
2022-09-15T01:48:29.081Z,13.20
2022-09-15T01:49:29.076Z,13.15
2022-09-15T01:50:29.056Z,13.17
2022-09-15T01:51:29.060Z,13.17
2022-09-15T01:52:29.051Z,13.18
2022-09-15T01:53:29.020Z,13.12
2022-09-15T01:54:29.000Z,13.11
2022-09-15T01:55:29.005Z,13.12
2022-09-15T01:56:28.980Z,13.12
2022-09-15T01:57:28.990Z,13.15
2022-09-15T01:58:28.940Z,13.11
2022-09-15T01:59:28.972Z,13.12
2022-09-15T02:00:28.931Z,13.11
2022-09-15T02:01:28.932Z,13.11
2022-09-15T02:02:28.988Z,13.11
2022-09-15T02:03:28.880Z,13.07
2022-09-15T02:04:28.861Z,13.06
2022-09-15T02:05:28.852Z,13.04
2022-09-15T02:06:28.863Z,13.06
2022-09-15T02:07:28.856Z,13.09
2022-09-15T02:08:28.812Z,13.06
2022-09-15T02:09:28.801Z,13.03
2022-09-15T02:10:28.781Z,13.00
2022-09-15T02:11:28.764Z,13.04
2022-09-15T02:12:28.784Z,13.02
2022-09-15T02:13:28.741Z,13.04
2022-09-15T02:14:28.723Z,13.03
2022-09-15T02:15:28.725Z,13.06
2022-09-15T02:16:28.785Z,13.03
2022-09-15T02:17:28.714Z,13.06
2022-09-15T02:18:28.674Z,13.06
2022-09-15T02:19:28.662Z,13.04
2022-09-15T02:20:28.653Z,13.07
2022-09-15T02:21:28.634Z,13.06
2022-09-15T02:22:28.634Z,13.02
2022-09-15T02:23:28.606Z,12.99
2022-09-15T02:24:28.586Z,13.03
2022-09-15T02:25:28.575Z,13.02
2022-09-15T02:26:28.557Z,12.99
2022-09-15T02:27:28.574Z,13.03
2022-09-15T02:28:28.533Z,13.04
2022-09-15T02:29:28.526Z,13.02
2022-09-15T02:30:28.516Z,13.02
2022-09-15T02:31:28.596Z,13.03
2022-09-15T02:32:28.486Z,13.03
2022-09-15T02:33:28.465Z,12.97
2022-09-15T02:34:28.445Z,12.97
2022-09-15T02:35:28.435Z,12.93
2022-09-15T02:36:28.416Z,12.96
2022-09-15T02:37:28.442Z,12.96
2022-09-15T02:38:28.396Z,12.92
2022-09-15T02:39:28.387Z,12.95
2022-09-15T02:40:28.452Z,12.89
2022-09-15T02:41:28.357Z,12.93
2022-09-15T02:42:28.378Z,12.95
2022-09-15T02:43:28.331Z,12.93
2022-09-15T02:44:28.314Z,12.93
2022-09-15T02:45:28.350Z,12.95
2022-09-15T02:46:28.286Z,12.95
2022-09-15T02:47:28.343Z,12.92
2022-09-15T02:48:28.257Z,12.92
2022-09-15T02:49:28.256Z,12.97
2022-09-15T02:50:28.228Z,12.96
2022-09-15T02:51:28.217Z,12.97
2022-09-15T02:52:28.260Z,12.96
2022-09-15T02:53:28.199Z,12.97
2022-09-15T02:54:28.182Z,12.96
2022-09-15T02:55:28.180Z,12.97
2022-09-15T02:56:28.149Z,12.93
2022-09-15T02:57:28.167Z,12.92
2022-09-15T02:58:28.142Z,12.95
2022-09-15T02:59:28.110Z,12.92
2022-09-15T03:00:28.089Z,12.92
2022-09-15T03:01:28.134Z,12.95
2022-09-15T03:02:28.156Z,12.92
2022-09-15T03:03:28.061Z,12.93
2022-09-15T03:04:28.040Z,12.88
2022-09-15T03:05:28.030Z,12.92
2022-09-15T03:06:28.029Z,12.93
2022-09-15T03:07:28.032Z,12.92
2022-09-15T03:08:27.980Z,12.96
2022-09-15T03:09:27.980Z,12.95
2022-09-15T03:10:27.961Z,12.96
2022-09-15T03:11:27.952Z,12.95
2022-09-15T03:12:27.951Z,12.97
2022-09-15T03:13:27.928Z,12.97
2022-09-15T03:14:27.911Z,12.97
2022-09-15T03:15:27.891Z,12.99
2022-09-15T03:16:27.952Z,12.96
2022-09-15T03:17:27.891Z,12.95
2022-09-15T03:18:27.850Z,12.93
2022-09-15T03:19:27.842Z,12.92
2022-09-15T03:20:27.822Z,12.95
2022-09-15T03:21:27.813Z,12.99
2022-09-15T03:22:27.826Z,12.97
2022-09-15T03:23:27.792Z,13.00
2022-09-15T03:24:27.786Z,13.06
2022-09-15T03:25:27.762Z,13.06
2022-09-15T03:26:27.750Z,13.07
2022-09-15T03:27:27.753Z,13.11
2022-09-15T03:28:27.738Z,13.09
2022-09-15T03:29:27.757Z,13.12
2022-09-15T03:30:27.685Z,13.11
2022-09-15T03:31:27.727Z,13.11
2022-09-15T03:32:27.697Z,13.07
2022-09-15T03:33:27.650Z,13.03
2022-09-15T03:34:27.635Z,13.00
2022-09-15T03:35:27.624Z,13.04
2022-09-15T03:36:27.606Z,13.04
2022-09-15T03:37:27.635Z,13.03
2022-09-15T03:38:27.576Z,13.00
2022-09-15T03:39:27.575Z,13.07
2022-09-15T03:40:27.648Z,13.12
2022-09-15T03:41:27.544Z,13.12
2022-09-15T03:42:27.558Z,13.15
2022-09-15T03:43:27.518Z,13.17
2022-09-15T03:44:27.496Z,13.20
2022-09-15T03:45:27.554Z,13.24
2022-09-15T03:46:27.467Z,13.27
2022-09-15T03:47:27.485Z,13.27
2022-09-15T03:48:27.436Z,13.29
2022-09-15T03:49:27.447Z,13.29
2022-09-15T03:50:27.426Z,13.27
2022-09-15T03:51:27.406Z,13.32
2022-09-15T03:52:27.416Z,13.33
2022-09-15T03:53:27.377Z,13.36
2022-09-15T03:54:27.368Z,13.37
2022-09-15T03:55:27.358Z,13.41
2022-09-15T03:56:27.349Z,13.41
2022-09-15T03:57:27.348Z,13.40
2022-09-15T03:58:30.660Z,13.41
2022-09-15T03:59:27.300Z,13.40
2022-09-15T04:00:27.328Z,13.41
2022-09-15T04:01:27.282Z,13.44
2022-09-15T04:02:27.394Z,13.44
2022-09-15T04:03:27.247Z,13.46
2022-09-15T04:04:27.257Z,13.52
2022-09-15T04:05:27.222Z,13.47
2022-09-15T04:06:27.200Z,13.52
2022-09-15T04:07:27.220Z,13.52
2022-09-15T04:08:27.172Z,13.54
2022-09-15T04:09:27.180Z,13.54
2022-09-15T04:10:27.183Z,13.51
2022-09-15T04:11:27.141Z,13.51
2022-09-15T04:12:27.142Z,13.58
2022-09-15T04:13:28.783Z,13.55
2022-09-15T04:14:27.091Z,13.56
2022-09-15T04:15:27.081Z,13.56
2022-09-15T04:16:27.164Z,13.58
2022-09-15T04:17:27.087Z,13.59
2022-09-15T04:18:27.031Z,13.56
2022-09-15T04:19:27.032Z,13.63
2022-09-15T04:20:27.013Z,13.59
2022-09-15T04:21:27.002Z,13.63
2022-09-15T04:22:27.001Z,13.62
2022-09-15T04:23:26.990Z,13.59
2022-09-15T04:24:26.951Z,13.63
2022-09-15T04:25:26.942Z,13.62
2022-09-15T04:26:26.993Z,13.62
2022-09-15T04:27:26.945Z,13.69
2022-09-15T04:28:26.904Z,13.67
2022-09-15T04:29:26.894Z,13.63
2022-09-15T04:30:26.874Z,13.65
2022-09-15T04:31:26.906Z,13.65
2022-09-15T04:32:26.870Z,13.70
2022-09-15T04:33:26.843Z,13.67
2022-09-15T04:34:26.822Z,13.67
2022-09-15T04:35:26.805Z,13.69
2022-09-15T04:36:26.794Z,13.70
2022-09-15T04:37:26.806Z,13.71
2022-09-15T04:38:26.768Z,13.70
2022-09-15T04:39:26.755Z,13.73
2022-09-15T04:40:26.795Z,13.71
2022-09-15T04:41:26.743Z,13.69
2022-09-15T04:42:26.734Z,13.70
2022-09-15T04:43:26.703Z,13.71
2022-09-15T04:44:26.697Z,13.73
2022-09-15T04:45:26.676Z,13.74
2022-09-15T04:46:26.712Z,13.81
2022-09-15T04:47:26.704Z,13.79
2022-09-15T04:48:26.635Z,13.80
2022-09-15T04:49:26.616Z,13.80
2022-09-15T04:50:26.609Z,13.79
2022-09-15T04:51:26.588Z,13.81
2022-09-15T04:52:26.604Z,13.81
2022-09-15T04:53:26.566Z,13.87
2022-09-15T04:54:26.546Z,13.84
2022-09-15T04:55:26.538Z,13.88
2022-09-15T04:56:26.520Z,13.84
2022-09-15T04:57:26.546Z,13.80
2022-09-15T04:58:26.560Z,13.83
2022-09-15T04:59:26.490Z,13.80
2022-09-15T05:00:26.466Z,13.81
2022-09-15T05:01:26.502Z,13.81
2022-09-15T05:02:26.511Z,13.83
2022-09-15T05:03:26.428Z,13.79
2022-09-15T05:04:26.416Z,13.80
2022-09-15T05:05:26.409Z,13.79
2022-09-15T05:06:26.398Z,13.79
2022-09-15T05:07:26.398Z,13.80
2022-09-15T05:08:26.398Z,13.77
2022-09-15T05:09:26.446Z,13.80
2022-09-15T05:10:26.329Z,13.77
2022-09-15T05:11:26.340Z,13.73
2022-09-15T05:12:26.380Z,13.71
2022-09-15T05:13:26.307Z,13.73
2022-09-15T05:14:26.280Z,13.73
2022-09-15T05:15:26.270Z,13.76
2022-09-15T05:16:26.334Z,13.79
2022-09-15T05:17:26.921Z,13.74
2022-09-15T05:18:26.279Z,13.80
2022-09-15T05:19:26.212Z,13.79
2022-09-15T05:20:26.191Z,13.76
2022-09-15T05:21:26.181Z,13.81
2022-09-15T05:22:26.190Z,13.83
2022-09-15T05:23:26.160Z,13.81
2022-09-15T05:24:26.144Z,13.83
2022-09-15T05:25:26.142Z,13.84
2022-09-15T05:26:26.111Z,13.88
2022-09-15T05:27:26.142Z,13.88
2022-09-15T05:28:26.090Z,13.83
2022-09-15T05:29:26.224Z,13.81
2022-09-15T05:30:38.659Z,13.83
2022-09-15T05:31:27.218Z,13.88
2022-09-15T05:32:26.054Z,13.83
2022-09-15T05:33:26.033Z,13.83
2022-09-15T05:34:26.004Z,13.87
2022-09-15T05:35:25.995Z,13.88
2022-09-15T05:36:25.979Z,13.89
2022-09-15T05:37:25.993Z,13.84
2022-09-15T05:38:25.947Z,13.87
2022-09-15T05:39:25.953Z,13.88
2022-09-15T05:40:25.938Z,13.89
2022-09-15T05:41:25.913Z,13.89
2022-09-15T05:42:25.935Z,13.89
2022-09-15T05:43:25.885Z,13.94
2022-09-15T05:44:25.870Z,13.95
2022-09-15T05:45:25.855Z,13.92
2022-09-15T05:46:25.875Z,13.89
2022-09-15T05:47:25.877Z,13.94
2022-09-15T05:48:25.815Z,13.91
2022-09-15T05:49:25.802Z,13.95
2022-09-15T05:50:25.797Z,13.96
2022-09-15T05:51:25.775Z,13.96
2022-09-15T05:52:25.783Z,13.98
2022-09-15T05:53:25.749Z,14.01
2022-09-15T05:54:25.729Z,14.02
2022-09-15T05:55:25.728Z,14.02
2022-09-15T05:56:25.696Z,14.07
2022-09-15T05:57:25.716Z,14.09
2022-09-15T05:58:25.677Z,14.14
2022-09-15T05:59:25.667Z,14.16
2022-09-15T06:00:25.658Z,14.20
2022-09-15T06:01:25.722Z,14.21
2022-09-15T06:02:25.678Z,14.25
2022-09-15T06:03:30.667Z,14.27
2022-09-15T06:04:26.607Z,14.31
2022-09-15T06:05:25.578Z,14.29
2022-09-15T06:06:25.570Z,14.31
2022-09-15T06:07:25.578Z,14.34
2022-09-15T06:08:25.548Z,14.34
2022-09-15T06:09:25.528Z,14.37
2022-09-15T06:10:25.519Z,14.37
2022-09-15T06:11:25.499Z,14.42
2022-09-15T06:12:25.528Z,14.46
2022-09-15T06:13:25.470Z,14.42
2022-09-15T06:14:25.467Z,14.39
2022-09-15T06:15:25.440Z,14.46
2022-09-15T06:16:25.488Z,14.44
2022-09-15T06:17:25.440Z,14.50
2022-09-15T06:18:25.418Z,14.35
2022-09-15T06:19:25.391Z,14.29
2022-09-15T06:20:25.414Z,14.25
2022-09-15T06:21:25.361Z,14.25
2022-09-15T06:22:25.382Z,14.27
2022-09-15T06:23:25.331Z,14.31
2022-09-15T06:24:25.331Z,14.31
2022-09-15T06:25:25.310Z,14.32
2022-09-15T06:26:25.300Z,14.34
2022-09-15T06:27:25.302Z,14.42
2022-09-15T06:28:25.272Z,14.43
2022-09-15T06:29:25.252Z,14.39
2022-09-15T06:30:25.259Z,14.39
2022-09-15T06:31:25.271Z,14.38
2022-09-15T06:32:25.253Z,14.37
2022-09-15T06:33:25.203Z,14.43
2022-09-15T06:34:25.190Z,14.50
2022-09-15T06:35:25.171Z,14.53
2022-09-15T06:36:25.163Z,14.54
2022-09-15T06:37:25.164Z,14.60
2022-09-15T06:38:25.135Z,14.64
2022-09-15T06:39:25.115Z,14.69
2022-09-15T06:40:25.227Z,14.71
2022-09-15T06:41:25.119Z,14.71
2022-09-15T06:42:25.095Z,14.74
2022-09-15T06:43:25.065Z,14.75
2022-09-15T06:44:25.055Z,14.78
2022-09-15T06:45:25.039Z,14.78
2022-09-15T06:46:25.187Z,14.80
2022-09-15T06:47:25.013Z,14.80
2022-09-15T06:48:25.339Z,14.75
2022-09-15T06:49:24.992Z,14.81
2022-09-15T06:50:25.033Z,14.83
2022-09-15T06:51:24.991Z,14.90
2022-09-15T06:52:24.947Z,14.93
2022-09-15T06:53:24.926Z,14.95
2022-09-15T06:54:24.920Z,14.95
2022-09-15T06:55:24.897Z,14.99
2022-09-15T06:56:24.917Z,14.99
2022-09-15T06:57:24.867Z,14.91
2022-09-15T06:58:24.867Z,14.88
2022-09-15T06:59:24.881Z,14.91
2022-09-15T07:00:24.926Z,15.02
2022-09-15T07:01:24.847Z,14.98
2022-09-15T07:02:24.957Z,15.02
2022-09-15T07:03:24.903Z,15.02
2022-09-15T07:04:24.778Z,14.99
2022-09-15T07:05:24.759Z,15.05
2022-09-15T07:06:24.799Z,15.09
2022-09-15T07:07:24.753Z,15.06
2022-09-15T07:08:24.733Z,14.91
2022-09-15T07:09:24.709Z,14.98
2022-09-15T07:10:34.219Z,14.99
2022-09-15T07:11:33.273Z,15.05
2022-09-15T07:12:24.673Z,15.12
2022-09-15T07:13:24.673Z,15.15
2022-09-15T07:14:24.645Z,15.19
2022-09-15T07:15:24.641Z,15.20
2022-09-15T07:16:24.702Z,15.20
2022-09-15T07:17:24.602Z,15.20
2022-09-15T07:18:24.585Z,15.21
2022-09-15T07:19:24.572Z,15.28
2022-09-15T07:20:24.676Z,15.28
2022-09-15T07:21:24.586Z,15.26
2022-09-15T07:22:24.544Z,15.27
2022-09-15T07:23:24.528Z,15.30
2022-09-15T07:24:24.513Z,15.35
2022-09-15T07:25:24.497Z,15.38
2022-09-15T07:26:24.506Z,15.35
2022-09-15T07:27:24.467Z,15.27
2022-09-15T07:28:24.454Z,15.27
2022-09-15T07:29:24.443Z,15.26
2022-09-15T07:30:24.485Z,15.35
2022-09-15T07:31:24.496Z,15.38
2022-09-15T07:32:24.408Z,15.45
2022-09-15T07:33:24.419Z,15.48
2022-09-15T07:34:24.368Z,15.49
2022-09-15T07:35:24.352Z,15.42
2022-09-15T07:36:24.378Z,15.41
2022-09-15T07:37:24.318Z,15.46
2022-09-15T07:38:24.319Z,15.46
2022-09-15T07:39:24.301Z,15.46
2022-09-15T07:43:13.135Z,15.72
2022-09-15T07:44:13.087Z,15.66
2022-09-15T07:45:13.077Z,15.64
2022-09-15T07:46:13.106Z,15.70
2022-09-15T07:47:13.076Z,15.66
2022-09-15T07:48:13.035Z,15.56
2022-09-15T07:49:13.057Z,15.60
2022-09-15T07:50:13.005Z,15.59
2022-09-15T07:51:12.993Z,15.61
2022-09-15T07:52:13.017Z,15.66
2022-09-15T07:53:12.972Z,15.74
2022-09-15T07:54:12.956Z,15.76
2022-09-15T07:55:12.945Z,15.76
2022-09-15T07:56:12.919Z,15.82
2022-09-15T07:57:12.957Z,15.88
2022-09-15T07:58:12.896Z,15.93
2022-09-15T07:59:12.906Z,15.93
2022-09-15T08:00:12.902Z,15.93
2022-09-15T08:01:22.537Z,15.99
2022-09-15T08:02:12.906Z,16.11
2022-09-15T08:06:08.609Z,16.33
2022-09-15T08:10:04.013Z,16.33
2022-09-15T08:13:11.434Z,16.38
2022-09-15T08:15:50.603Z,16.37
2022-09-15T08:16:58.121Z,16.35
2022-09-15T08:26:32.394Z,16.42
2022-09-15T08:27:32.357Z,16.42
2022-09-15T08:28:32.363Z,16.49
2022-09-15T08:29:32.335Z,16.48
2022-09-15T08:30:32.320Z,16.49
2022-09-15T08:31:32.435Z,16.50
2022-09-15T08:32:32.289Z,16.55
2022-09-15T08:33:32.275Z,16.59
2022-09-15T08:34:32.256Z,16.53
2022-09-15T08:35:32.246Z,16.48
2022-09-15T08:36:32.257Z,16.59
2022-09-15T08:37:32.216Z,16.65
2022-09-15T08:38:32.197Z,16.74
2022-09-15T08:39:32.212Z,16.80
2022-09-15T08:40:32.222Z,16.81
2022-09-15T08:41:32.195Z,16.92
2022-09-15T08:42:32.148Z,17.00
2022-09-15T08:43:32.139Z,17.06
2022-09-15T08:44:32.133Z,17.04
2022-09-15T08:45:32.108Z,16.99
2022-09-15T08:46:32.186Z,16.89
2022-09-15T08:47:32.099Z,16.92
2022-09-15T08:48:32.060Z,16.95
2022-09-15T08:53:52.996Z,16.98
2022-09-15T08:54:52.794Z,17.00
2022-09-15T08:55:52.785Z,17.03
2022-09-15T08:57:00.370Z,17.10
